createdAt,value
2022-11-17T00:02:11.639Z,97323.91
2022-11-17T00:04:40.244Z,97316.13
2022-11-17T00:07:09.383Z,97302.22
2022-11-17T00:09:37.941Z,97309.91
2022-11-17T00:12:28.485Z,97302.69
2022-11-17T00:15:01.205Z,97285.63
2022-11-17T00:17:31.157Z,97296.13
2022-11-17T00:20:17.255Z,97276.69
2022-11-17T00:22:45.878Z,97277.03
2022-11-17T00:25:14.496Z,97283.25
2022-11-17T00:27:43.106Z,97280.53
2022-11-17T00:30:32.495Z,97280.78
2022-11-17T00:33:21.021Z,97278.72
2022-11-17T00:35:53.025Z,97277.50
2022-11-17T00:38:21.836Z,97279.84
2022-11-17T00:40:50.409Z,97283.81
2022-11-17T00:43:19.060Z,97283.03
2022-11-17T00:45:47.703Z,97275.78
2022-11-17T00:48:17.655Z,97271.97
2022-11-17T00:50:46.267Z,97266.88
2022-11-17T00:53:14.848Z,97262.34
2022-11-17T00:55:43.745Z,97264.97
2022-11-17T00:58:12.362Z,97253.41
2022-11-17T01:00:40.965Z,97249.25
2022-11-17T01:03:09.585Z,97246.66
2022-11-17T01:05:39.524Z,97246.88
2022-11-17T01:08:08.136Z,97242.13
2022-11-17T01:10:36.927Z,97235.34
2022-11-17T01:13:05.501Z,97237.34
2022-11-17T01:15:34.989Z,97228.56
2022-11-17T01:18:03.676Z,97214.09
2022-11-17T01:20:32.300Z,97212.72
2022-11-17T01:23:02.244Z,97213.84
2022-11-17T01:25:31.936Z,97197.84
2022-11-17T01:28:00.573Z,97197.31
2022-11-17T01:30:29.198Z,97189.16
2022-11-17T01:32:57.824Z,97194.13
2022-11-17T01:35:26.431Z,97185.00
2022-11-17T01:37:55.050Z,97182.72
2022-11-17T01:40:25.011Z,97182.47
2022-11-17T01:42:53.611Z,97175.81
2022-11-17T01:45:22.782Z,97168.19
2022-11-17T01:47:53.797Z,97162.81
2022-11-17T01:50:28.049Z,97156.34
2022-11-17T01:52:59.587Z,97141.88
2022-11-17T01:55:34.631Z,97153.38
2022-11-17T01:58:07.762Z,97149.28
2022-11-17T02:00:36.451Z,97131.78
2022-11-17T02:03:07.275Z,97130.22
2022-11-17T02:05:42.679Z,97122.25
2022-11-17T02:08:12.239Z,97132.50
2022-11-17T02:10:47.129Z,97126.28
2022-11-17T02:13:19.174Z,97118.50
2022-11-17T02:15:47.963Z,97113.53
2022-11-17T02:18:17.171Z,97104.13
2022-11-17T02:20:54.127Z,97080.97
2022-11-17T02:23:44.591Z,97083.56
2022-11-17T02:26:41.028Z,97079.00
2022-11-17T02:29:16.123Z,97081.13
2022-11-17T02:31:50.302Z,97068.44
2022-11-17T02:34:27.340Z,97066.88
2022-11-17T02:36:58.840Z,97061.72
2022-11-17T02:39:30.973Z,97056.06
2022-11-17T02:42:05.607Z,97056.13
2022-11-17T02:44:39.764Z,97041.97
2022-11-17T02:47:11.100Z,97040.75
2022-11-17T02:49:42.427Z,97033.75
2022-11-17T02:52:11.585Z,97015.59
2022-11-17T02:54:40.166Z,97001.25
2022-11-17T02:57:29.824Z,97021.28
2022-11-17T03:00:04.811Z,97003.00
2022-11-17T03:02:42.369Z,97000.88
2022-11-17T03:05:14.754Z,97006.41
2022-11-17T03:07:58.380Z,97002.53
2022-11-17T03:10:30.034Z,97011.91
2022-11-17T03:13:02.914Z,97030.09
2022-11-17T03:15:38.880Z,97051.00
2022-11-17T03:18:11.923Z,97059.34
2022-11-17T03:20:43.175Z,97073.94
2022-11-17T03:23:15.164Z,97074.72
2022-11-17T03:25:46.227Z,97055.81
2022-11-17T03:28:16.841Z,97039.94
2022-11-17T03:30:47.808Z,97038.44
2022-11-17T03:33:19.027Z,97035.84
2022-11-17T03:35:51.069Z,97030.41
2022-11-17T03:38:21.843Z,97035.84
2022-11-17T03:40:51.655Z,97029.59
2022-11-17T03:43:21.911Z,97039.72
2022-11-17T03:45:54.475Z,97038.44
2022-11-17T03:48:27.376Z,97056.66
2022-11-17T03:51:00.144Z,97069.91
2022-11-17T03:53:30.596Z,97065.50
2022-11-17T03:56:04.229Z,97067.84
2022-11-17T03:58:35.118Z,97048.91
2022-11-17T04:01:06.472Z,97034.34
2022-11-17T04:03:35.623Z,97055.16
2022-11-17T04:06:04.516Z,97044.75
2022-11-17T04:08:33.125Z,97031.91
2022-11-17T04:11:19.450Z,97035.91
2022-11-17T04:14:05.483Z,97028.16
2022-11-17T04:16:35.440Z,97037.78
2022-11-17T04:19:04.069Z,97034.16
2022-11-17T04:21:32.717Z,97026.34
2022-11-17T04:24:01.436Z,97033.13
2022-11-17T04:26:47.445Z,97021.22
2022-11-17T04:29:17.535Z,97021.44
2022-11-17T04:31:47.494Z,97013.16
2022-11-17T04:34:16.096Z,97009.28
2022-11-17T04:36:44.695Z,97004.13
2022-11-17T04:39:14.987Z,96995.28
2022-11-17T04:41:56.838Z,97001.59
2022-11-17T04:44:26.372Z,96996.13
2022-11-17T04:46:56.871Z,96995.41
2022-11-17T04:49:27.115Z,96990.19
2022-11-17T04:51:56.120Z,96993.34
2022-11-17T04:54:25.900Z,96995.47
2022-11-17T04:56:55.765Z,96997.59
2022-11-17T04:59:24.702Z,97003.81
2022-11-17T05:01:53.355Z,96991.28
2022-11-17T05:04:41.118Z,96999.66
2022-11-17T05:07:10.339Z,97002.78
2022-11-17T05:09:38.977Z,96999.94
2022-11-17T05:12:27.136Z,96987.75
2022-11-17T05:14:55.719Z,96993.56
2022-11-17T05:17:23.310Z,97004.22
2022-11-17T05:19:53.267Z,97002.66
2022-11-17T05:22:41.771Z,96998.00
2022-11-17T05:25:10.736Z,97000.84
2022-11-17T05:27:39.335Z,96998.50
2022-11-17T05:30:09.538Z,97014.59
2022-11-17T05:32:38.447Z,97023.44
2022-11-17T05:35:09.412Z,97026.06
2022-11-17T05:37:38.009Z,97017.16
2022-11-17T05:40:07.981Z,97023.38
2022-11-17T05:42:36.581Z,97025.69
2022-11-17T05:45:05.811Z,97033.78
2022-11-17T05:47:34.426Z,97035.91
2022-11-17T05:50:03.045Z,97029.44
2022-11-17T05:52:33.089Z,97030.22
2022-11-17T05:55:01.710Z,97026.59
2022-11-17T05:57:32.113Z,97020.59
2022-11-17T06:00:04.479Z,97007.50
2022-11-17T06:02:34.991Z,97022.59
2022-11-17T06:05:04.513Z,97028.94
2022-11-17T06:07:35.747Z,97017.50
2022-11-17T06:10:04.916Z,97021.19
2022-11-17T06:12:33.535Z,97020.16
2022-11-17T06:15:02.181Z,97017.00
2022-11-17T06:17:32.500Z,97021.88
2022-11-17T06:20:03.720Z,97020.59
2022-11-17T06:22:34.156Z,97020.88
2022-11-17T06:25:04.868Z,97029.53
2022-11-17T06:27:33.819Z,97028.03
2022-11-17T06:30:03.969Z,97039.53
2022-11-17T06:32:34.316Z,97027.28
2022-11-17T06:35:05.016Z,97031.91
2022-11-17T06:37:35.058Z,97037.94
2022-11-17T06:40:04.106Z,97041.34
2022-11-17T06:42:50.346Z,97029.06
2022-11-17T06:45:18.920Z,97027.28
2022-11-17T06:47:47.530Z,97024.47
2022-11-17T06:50:16.262Z,97038.78
2022-11-17T06:52:46.297Z,97043.72
2022-11-17T06:55:15.104Z,97059.84
2022-11-17T06:57:46.599Z,97043.41
2022-11-17T07:00:20.058Z,97056.41
2022-11-17T07:02:48.636Z,97040.19
2022-11-17T07:05:17.551Z,97049.66
2022-11-17T07:07:47.615Z,97052.53
2022-11-17T07:10:16.361Z,97061.72
2022-11-17T07:12:46.959Z,97028.38
2022-11-17T07:15:15.787Z,97039.09
2022-11-17T07:17:44.503Z,97024.25
2022-11-17T07:20:13.761Z,97030.78
2022-11-17T07:22:42.586Z,97034.22
2022-11-17T07:25:14.556Z,97034.03
2022-11-17T07:27:44.834Z,97024.72
2022-11-17T07:30:14.894Z,97022.66
2022-11-17T07:32:43.627Z,97031.56
2022-11-17T07:35:12.346Z,97027.94
2022-11-17T07:37:41.036Z,97025.31
2022-11-17T07:40:12.674Z,97023.00
2022-11-17T07:42:41.384Z,97024.84
2022-11-17T07:45:10.915Z,97017.84
2022-11-17T07:47:39.603Z,97022.25
2022-11-17T07:50:09.196Z,97023.03
2022-11-17T07:52:41.421Z,97016.81
2022-11-17T07:55:12.126Z,97029.09
2022-11-17T07:57:40.837Z,97032.78
2022-11-17T08:00:10.554Z,97021.78
2022-11-17T08:02:39.263Z,97022.88
2022-11-17T08:05:08.674Z,97027.84
2022-11-17T08:07:37.652Z,97026.31
2022-11-17T08:10:07.477Z,97013.31
2022-11-17T08:12:37.538Z,97016.75
2022-11-17T08:15:07.581Z,97012.88
2022-11-17T08:17:36.962Z,97023.13
2022-11-17T08:20:06.144Z,97024.22
2022-11-17T08:22:34.880Z,97038.63
2022-11-17T08:25:03.908Z,97025.34
2022-11-17T08:27:33.681Z,97035.03
2022-11-17T08:30:03.876Z,97039.53
2022-11-17T08:32:32.605Z,97043.22
2022-11-17T08:35:01.295Z,97044.31
2022-11-17T08:37:29.939Z,97040.66
2022-11-17T08:39:58.661Z,97038.34
2022-11-17T08:42:27.412Z,97036.53
2022-11-17T08:44:56.092Z,97023.50
2022-11-17T08:47:26.217Z,97042.84
2022-11-17T08:49:54.995Z,97044.41
2022-11-17T08:52:23.769Z,97049.69
2022-11-17T08:54:52.582Z,97065.09
2022-11-17T08:57:21.968Z,97068.00
2022-11-17T08:59:50.904Z,97066.44
2022-11-17T09:02:19.767Z,97071.19
2022-11-17T09:04:50.619Z,97065.97
2022-11-17T09:07:19.397Z,97072.50
2022-11-17T09:09:48.620Z,97067.56
2022-11-17T09:12:17.946Z,97079.59
2022-11-17T09:14:46.634Z,97084.06
2022-11-17T09:17:15.324Z,97079.94
2022-11-17T09:19:44.049Z,97085.44
2022-11-17T09:22:14.115Z,97085.72
2022-11-17T09:24:42.763Z,97095.41
2022-11-17T09:27:11.456Z,97083.13
2022-11-17T09:29:40.158Z,97088.38
2022-11-17T09:32:08.831Z,97089.41
2022-11-17T09:34:37.661Z,97083.13
2022-11-17T09:37:06.379Z,97080.25
2022-11-17T09:39:36.390Z,97089.94
2022-11-17T09:42:05.531Z,97090.22
2022-11-17T09:44:39.818Z,97098.31
2022-11-17T09:47:19.515Z,97097.28
2022-11-17T09:49:58.350Z,97103.03
2022-11-17T09:52:30.788Z,97098.56
2022-11-17T09:55:02.532Z,97093.34
2022-11-17T09:57:35.969Z,97102.75
2022-11-17T10:00:08.660Z,97103.81
2022-11-17T10:02:37.321Z,97111.66
2022-11-17T10:05:06.753Z,97113.75
2022-11-17T10:07:35.869Z,97109.84
2022-11-17T10:10:07.482Z,97111.13
2022-11-17T10:12:39.910Z,97112.19
2022-11-17T10:15:21.930Z,97112.16
2022-11-17T10:17:51.735Z,97115.56
2022-11-17T10:20:20.680Z,97103.53
2022-11-17T10:22:49.846Z,97106.16
2022-11-17T10:25:37.776Z,97110.09
2022-11-17T10:28:08.588Z,97118.72
2022-11-17T10:30:37.300Z,97116.88
2022-11-17T10:33:05.946Z,97119.00
2022-11-17T10:35:36.124Z,97116.63
2022-11-17T10:38:06.851Z,97112.69
2022-11-17T10:40:47.941Z,97092.78
2022-11-17T10:43:24.379Z,97105.59
2022-11-17T10:45:55.218Z,97108.22
2022-11-17T10:48:31.239Z,97112.94
2022-11-17T10:51:00.992Z,97108.47
2022-11-17T10:53:43.029Z,97096.41
2022-11-17T10:56:18.447Z,97109.25
2022-11-17T10:59:00.795Z,97104.00
2022-11-17T11:01:31.269Z,97123.88
2022-11-17T11:04:00.054Z,97113.63
2022-11-17T11:06:30.497Z,97094.78
2022-11-17T11:09:02.170Z,97102.09
2022-11-17T11:11:39.270Z,97103.34
2022-11-17T11:14:14.749Z,97100.47
2022-11-17T11:16:48.033Z,97088.94
2022-11-17T11:19:18.715Z,97094.13
2022-11-17T11:22:14.685Z,97092.78
2022-11-17T11:24:52.494Z,97093.25
2022-11-17T11:27:33.365Z,97096.13
2022-11-17T11:30:05.341Z,97111.38
2022-11-17T11:32:42.380Z,97098.25
2022-11-17T11:35:40.443Z,97090.31
2022-11-17T11:38:17.508Z,97083.25
2022-11-17T11:40:56.216Z,97089.75
2022-11-17T11:43:34.078Z,97094.44
2022-11-17T11:46:09.134Z,97084.72
2022-11-17T11:48:38.142Z,97091.59
2022-11-17T11:51:12.701Z,97085.81
2022-11-17T11:53:47.518Z,97099.00
2022-11-17T11:56:19.102Z,97103.97
2022-11-17T11:58:58.213Z,97106.88
2022-11-17T12:01:27.629Z,97127.88
2022-11-17T12:04:07.376Z,97111.97
2022-11-17T12:06:41.175Z,97101.75
2022-11-17T12:09:40.155Z,97097.72
2022-11-17T12:12:10.226Z,97096.38
2022-11-17T12:14:41.214Z,97112.59
2022-11-17T12:17:23.176Z,97097.59
2022-11-17T12:19:57.217Z,97101.19
2022-11-17T12:23:00.577Z,97104.00
2022-11-17T12:25:30.449Z,97103.56
2022-11-17T12:27:59.146Z,97110.09
2022-11-17T12:30:53.628Z,97108.03
2022-11-17T12:33:23.745Z,97100.28
2022-11-17T12:36:18.590Z,97101.56
2022-11-17T12:38:47.370Z,97097.34
2022-11-17T12:41:16.046Z,97102.13
2022-11-17T12:43:44.710Z,97107.06
2022-11-17T12:46:31.521Z,97087.03
2022-11-17T12:49:07.953Z,97095.66
2022-11-17T12:51:40.913Z,97098.19
2022-11-17T12:54:20.896Z,97101.09
2022-11-17T12:56:58.324Z,97094.03
2022-11-17T12:59:51.874Z,97082.69
2022-11-17T13:02:31.970Z,97103.88
2022-11-17T13:05:04.486Z,97101.00
2022-11-17T13:07:33.139Z,97095.00
2022-11-17T13:10:02.699Z,97104.97
2022-11-17T13:12:33.053Z,97099.13
2022-11-17T13:15:03.612Z,97101.22
2022-11-17T13:17:34.782Z,97100.66
2022-11-17T13:20:05.063Z,97100.09
2022-11-17T13:22:36.498Z,97095.34
2022-11-17T13:25:22.804Z,97086.53
2022-11-17T13:27:56.223Z,97088.28
2022-11-17T13:30:29.626Z,97093.09
2022-11-17T13:33:02.633Z,97099.69
2022-11-17T13:35:32.957Z,97097.81
2022-11-17T13:38:03.260Z,97102.91
2022-11-17T13:40:32.660Z,97105.13
2022-11-17T13:43:02.092Z,97101.25
2022-11-17T13:45:30.822Z,97106.28
2022-11-17T13:48:00.775Z,97102.63
2022-11-17T13:50:38.155Z,97099.28
2022-11-17T13:53:19.410Z,97111.66
2022-11-17T13:55:48.201Z,97096.97
2022-11-17T13:58:36.150Z,97100.94
2022-11-17T14:01:05.142Z,97097.81
2022-11-17T14:03:37.443Z,97094.63
2022-11-17T14:06:08.256Z,97087.03
2022-11-17T14:08:38.304Z,97101.22
2022-11-17T14:11:09.243Z,97097.31
2022-11-17T14:13:39.675Z,97099.72
2022-11-17T14:16:20.742Z,97085.59
2022-11-17T14:19:01.854Z,97090.03
2022-11-17T14:21:30.845Z,97081.94
2022-11-17T14:24:05.617Z,97097.72
2022-11-17T14:26:34.559Z,97103.25
2022-11-17T14:29:03.230Z,97098.00
2022-11-17T14:31:32.149Z,97092.78
2022-11-17T14:34:02.215Z,97090.16
2022-11-17T14:36:32.768Z,97089.09
2022-11-17T14:39:02.184Z,97086.50
2022-11-17T14:41:30.859Z,97087.59
2022-11-17T14:43:59.531Z,97085.25
2022-11-17T14:46:28.479Z,97082.38
2022-11-17T14:48:57.089Z,97083.97
2022-11-17T14:51:27.260Z,97083.72
2022-11-17T14:53:55.924Z,97085.06
2022-11-17T14:56:25.488Z,97079.81
2022-11-17T14:58:57.235Z,97079.31
2022-11-17T15:01:28.735Z,97070.16
2022-11-17T15:03:58.585Z,97077.53
2022-11-17T15:06:29.026Z,97062.09
2022-11-17T15:08:59.078Z,97082.00
2022-11-17T15:11:29.251Z,97082.03
2022-11-17T15:14:02.417Z,97068.44
2022-11-17T15:16:31.046Z,97083.63
2022-11-17T15:19:00.039Z,97090.50
2022-11-17T15:21:30.001Z,97089.69
2022-11-17T15:23:58.719Z,97080.78
2022-11-17T15:26:27.367Z,97080.00
2022-11-17T15:28:57.728Z,97068.75
2022-11-17T15:31:26.463Z,97073.19
2022-11-17T15:33:55.114Z,97080.31
2022-11-17T15:36:24.191Z,97078.00
2022-11-17T15:38:54.296Z,97071.72
2022-11-17T15:41:23.001Z,97072.25
2022-11-17T15:43:51.713Z,97071.75
2022-11-17T15:46:20.416Z,97066.50
2022-11-17T15:48:52.413Z,97060.50
2022-11-17T15:51:22.207Z,97068.13
2022-11-17T15:53:52.150Z,97064.19
2022-11-17T15:56:24.368Z,97066.59
2022-11-17T15:58:56.469Z,97068.16
2022-11-17T16:01:29.543Z,97062.91
2022-11-17T16:03:59.687Z,97063.44
2022-11-17T16:06:28.719Z,97059.75
2022-11-17T16:08:57.684Z,97067.66
2022-11-17T16:11:27.928Z,97060.88
2022-11-17T16:13:57.650Z,97061.13
2022-11-17T16:16:27.718Z,97055.88
2022-11-17T16:18:56.510Z,97055.13
2022-11-17T16:21:25.649Z,97059.03
2022-11-17T16:23:55.920Z,97054.09
2022-11-17T16:26:27.054Z,97055.38
2022-11-17T16:28:59.232Z,97064.53
2022-11-17T16:31:29.459Z,97059.06
2022-11-17T16:34:00.366Z,97061.94
2022-11-17T16:36:36.282Z,97073.19
2022-11-17T16:39:08.442Z,97078.69
2022-11-17T16:41:40.266Z,97061.94
2022-11-17T16:44:11.767Z,97071.38
2022-11-17T16:46:42.549Z,97067.16
2022-11-17T16:49:13.202Z,97068.22
2022-11-17T16:51:42.264Z,97062.19
2022-11-17T16:54:12.699Z,97062.97
2022-11-17T16:56:42.752Z,97066.13
2022-11-17T16:59:11.638Z,97068.72
2022-11-17T17:01:40.379Z,97077.09
2022-11-17T17:04:10.310Z,97068.47
2022-11-17T17:06:41.410Z,97086.28
2022-11-17T17:09:12.263Z,97073.69
2022-11-17T17:11:42.420Z,97071.88
2022-11-17T17:14:13.889Z,97070.28
2022-11-17T17:16:43.119Z,97070.28
2022-11-17T17:19:13.971Z,97078.41
2022-11-17T17:21:44.044Z,97070.81
2022-11-17T17:24:12.758Z,97067.16
2022-11-17T17:26:43.021Z,97065.06
2022-11-17T17:29:12.410Z,97070.56
2022-11-17T17:31:42.516Z,97084.38
2022-11-17T17:34:12.643Z,97082.53
2022-11-17T17:36:41.301Z,97091.94
2022-11-17T17:39:15.512Z,97086.47
2022-11-17T17:41:46.002Z,97090.09
2022-11-17T17:44:16.808Z,97096.34
2022-11-17T17:46:46.026Z,97088.28
2022-11-17T17:49:15.168Z,97095.34
2022-11-17T17:51:45.095Z,97095.81
2022-11-17T17:54:19.121Z,97089.03
2022-11-17T17:56:49.242Z,97097.66
2022-11-17T17:59:18.992Z,97092.75
2022-11-17T18:01:48.080Z,97078.91
2022-11-17T18:04:17.327Z,97082.84
2022-11-17T18:06:47.911Z,97083.88
2022-11-17T18:09:19.547Z,97094.34
2022-11-17T18:11:51.402Z,97094.88
2022-11-17T18:14:24.155Z,97091.47
2022-11-17T18:16:53.720Z,97098.28
2022-11-17T18:19:25.741Z,97091.22
2022-11-17T18:21:57.015Z,97087.03
2022-11-17T18:24:26.104Z,97087.56
2022-11-17T18:26:56.146Z,97094.59
2022-11-17T18:29:24.880Z,97093.56
2022-11-17T18:31:53.520Z,97096.72
2022-11-17T18:34:23.530Z,97098.56
2022-11-17T18:36:53.210Z,97103.78
2022-11-17T18:39:22.015Z,97099.03
2022-11-17T18:41:50.750Z,97101.69
2022-11-17T18:44:20.726Z,97096.97
2022-11-17T18:46:49.453Z,97101.41
2022-11-17T18:49:18.397Z,97107.69
2022-11-17T18:51:47.310Z,97110.06
2022-11-17T18:54:16.100Z,97109.50
2022-11-17T18:56:45.294Z,97117.09
2022-11-17T18:59:14.343Z,97117.63
2022-11-17T19:01:45.304Z,97122.06
2022-11-17T19:04:15.216Z,97119.16
2022-11-17T19:06:43.839Z,97127.25
2022-11-17T19:09:13.514Z,97139.56
2022-11-17T19:11:42.391Z,97142.69
2022-11-17T19:14:11.099Z,97132.47
2022-11-17T19:16:44.578Z,97142.44
2022-11-17T19:19:15.655Z,97127.53
2022-11-17T19:21:44.590Z,97131.97
2022-11-17T19:24:13.352Z,97153.16
2022-11-17T19:26:42.785Z,97159.97
2022-11-17T19:29:17.295Z,97151.34
2022-11-17T19:31:46.633Z,97153.44
2022-11-17T19:34:16.876Z,97145.31
2022-11-17T19:36:45.529Z,97157.13
2022-11-17T19:39:15.281Z,97150.34
2022-11-17T19:41:45.011Z,97152.19
2022-11-17T19:44:13.935Z,97156.09
2022-11-17T19:46:43.649Z,97158.72
2022-11-17T19:49:12.457Z,97171.31
2022-11-17T19:51:42.450Z,97161.63
2022-11-17T19:54:13.528Z,97180.97
2022-11-17T19:56:42.129Z,97184.91
2022-11-17T19:59:15.658Z,97191.72
2022-11-17T20:01:46.162Z,97198.00
2022-11-17T20:04:14.972Z,97199.31
2022-11-17T20:06:44.896Z,97204.03
2022-11-17T20:09:14.878Z,97215.25
2022-11-17T20:11:44.975Z,97211.03
2022-11-17T20:14:14.388Z,97218.59
2022-11-17T20:16:43.161Z,97216.19
2022-11-17T20:19:12.197Z,97219.31
2022-11-17T20:21:41.641Z,97222.09
2022-11-17T20:24:11.750Z,97221.56
2022-11-17T20:26:42.958Z,97207.63
2022-11-17T20:29:11.579Z,97222.75
2022-11-17T20:31:40.185Z,97228.47
2022-11-17T20:34:11.991Z,97235.22
2022-11-17T20:36:40.666Z,97239.09
2022-11-17T20:39:09.331Z,97231.78
2022-11-17T20:41:39.377Z,97225.97
2022-11-17T20:44:23.589Z,97242.88
2022-11-17T20:46:52.838Z,97234.78
2022-11-17T20:49:21.847Z,97245.16
2022-11-17T20:51:50.541Z,97255.59
2022-11-17T20:54:19.781Z,97262.59
2022-11-17T20:56:49.799Z,97260.47
2022-11-17T20:59:20.265Z,97259.41
2022-11-17T21:01:50.414Z,97272.97
2022-11-17T21:04:19.060Z,97265.09
2022-11-17T21:06:47.706Z,97267.66
2022-11-17T21:09:16.500Z,97276.03
2022-11-17T21:12:00.258Z,97274.94
2022-11-17T21:14:30.655Z,97272.84
2022-11-17T21:17:01.037Z,97276.44
2022-11-17T21:19:31.138Z,97275.41
2022-11-17T21:22:01.961Z,97267.59
2022-11-17T21:24:30.610Z,97272.81
2022-11-17T21:26:59.336Z,97271.31
2022-11-17T21:29:28.304Z,97275.41
2022-11-17T21:31:58.390Z,97268.84
2022-11-17T21:34:27.009Z,97278.50
2022-11-17T21:36:55.656Z,97278.28
2022-11-17T21:39:24.617Z,97284.44
2022-11-17T21:41:53.354Z,97297.47
2022-11-17T21:44:22.013Z,97309.41
2022-11-17T21:46:50.675Z,97317.50
2022-11-17T21:49:20.666Z,97317.66
2022-11-17T21:51:49.336Z,97320.53
2022-11-17T21:54:18.053Z,97324.34
2022-11-17T21:56:46.733Z,97319.59
2022-11-17T21:59:17.082Z,97322.22
2022-11-17T22:01:45.875Z,97321.19
2022-11-17T22:04:15.820Z,97314.63
2022-11-17T22:06:46.456Z,97322.47
2022-11-17T22:09:15.434Z,97327.63
2022-11-17T22:11:44.299Z,97322.59
2022-11-17T22:14:14.398Z,97322.34
2022-11-17T22:16:44.454Z,97328.56
2022-11-17T22:19:13.968Z,97330.66
2022-11-17T22:21:43.306Z,97323.84
2022-11-17T22:24:14.071Z,97323.84
2022-11-17T22:26:44.059Z,97322.50
2022-11-17T22:29:14.957Z,97307.66
2022-11-17T22:31:44.136Z,97296.75
2022-11-17T22:34:13.090Z,97285.25
2022-11-17T22:36:41.907Z,97284.72
2022-11-17T22:39:10.511Z,97287.06
2022-11-17T22:41:40.809Z,97279.44
2022-11-17T22:44:13.422Z,97272.91
2022-11-17T22:46:43.140Z,97270.00
2022-11-17T22:49:11.981Z,97264.78
2022-11-17T22:51:54.539Z,97268.88
2022-11-17T22:54:23.222Z,97277.75
2022-11-17T22:56:53.674Z,97283.03
2022-11-17T22:59:23.692Z,97277.88
2022-11-17T23:01:52.348Z,97268.03
2022-11-17T23:04:21.075Z,97258.88
2022-11-17T23:06:50.297Z,97256.88
2022-11-17T23:09:19.223Z,97258.47
2022-11-17T23:11:49.316Z,97255.50
2022-11-17T23:14:19.291Z,97245.44
2022-11-17T23:16:47.927Z,97251.31
2022-11-17T23:19:16.735Z,97250.38
2022-11-17T23:21:45.568Z,97257.69
2022-11-17T23:24:14.686Z,97265.28
2022-11-17T23:26:43.766Z,97261.28
2022-11-17T23:29:12.390Z,97262.34
2022-11-17T23:31:42.452Z,97259.69
2022-11-17T23:34:12.096Z,97263.44
2022-11-17T23:36:40.736Z,97263.03
2022-11-17T23:39:09.439Z,97257.81
2022-11-17T23:41:38.055Z,97258.59
2022-11-17T23:44:06.973Z,97254.97
2022-11-17T23:46:35.604Z,97252.59
2022-11-17T23:49:05.620Z,97257.81
2022-11-17T23:51:34.867Z,97262.22
2022-11-17T23:54:03.797Z,97262.78
2022-11-17T23:56:33.542Z,97251.31
2022-11-17T23:59:02.317Z,97246.81
